Main page
METAR-TAF:

METAR-TAF

Airports :

Bahrain, Bahrain

Bahrain International Airport

latitude: 26-16N, longitude: 050-39E, elevation: 2 m

Current weather observation

The report was made 15 minutes ago, at 02:00 UTC
Wind 2 kt from variable directions
Temperature 34°C
Humidity 80%
Pressure 1000 hPa
Visibility: 5000 m
haze

METAR: OBBI 200200Z VRB02KT 5000 HZ NSC 34/30 Q1000 NOSIG

Time: 05:15 (02:15 UTC)

Forecast

The report was made 3 hours and 15 minutes ago, at 23:00 UTC
Forecast valid from 20 at 00 UTC to 21 at 06 UTC
Wind 5 kt from variable directions
Visibility: 8000 m
Temporary
from 20 at 00 UTC to 20 at 04 UTC
Visibility: 4000 m
haze
Becoming
from 20 at 06 UTC to 20 at 08 UTC
Wind 10 kt from the North/Northeast

TAF: OBBI 192300Z 2000/2106 VRB05KT 8000 NSC TEMPO 2000/2004 4000 HZ BECMG 2006/2008 03010KT

Weather observations and forecasts of more than 4000 airports (METAR and TAF reports).

The available stations are represented by yellow and red dots on the map.

Hover mouse over dot to see the name of the station.

Then click to see weather observations and forecasts.

To change the map : click on the green buttons with a black cross to zoom in, on the green button with a dash to zoom out, or on the green arrows for adjacent maps.


METAR-TAF: